Time;durP1;ratioP1;P1;durP2;ratioP2;P2;SDS_P1;SDS_P2;PMS_P1;PMS_P2;Temp;Humidity;BMP_temperature;BMP_pressure;BME280_temperature;BME280_humidity;BME280_pressure;Samples;Min_cycle;Max_cycle;Signal;HPM_P1;HPM_P2
2021/03/03 00:00:58;;;;;;;18.17;15.87;;;;;;;;;;2078994;28;20185;-58
2021/03/03 00:01:59;;;;;;;20.20;16.47;;;;;;;;;;2081847;28;20175;-56
2021/03/03 00:02:59;;;;;;;23.50;16.70;;;;;;;;;;2079251;28;20325;-58
2021/03/03 00:03:59;;;;;;;22.20;16.17;;;;;;;;;;2080948;28;20707;-58
2021/03/03 00:04:59;;;;;;;18.80;15.70;;;;;;;;;;2082570;28;20180;-53
2021/03/03 00:06:00;;;;;;;22.30;16.40;;;;;;;;;;2081961;28;20179;-57
2021/03/03 00:07:00;;;;;;;23.60;16.43;;;;;;;;;;2082818;28;20204;-56
2021/03/03 00:08:00;;;;;;;20.90;16.33;;;;;;;;;;2081312;28;20179;-56
2021/03/03 00:09:01;;;;;;;20.97;16.43;;;;;;;;;;2081728;28;20200;-57
2021/03/03 00:10:03;;;;;;;21.00;16.63;;;;;;;;;;2073690;28;20191;-55
2021/03/03 00:11:03;;;;;;;20.90;16.90;;;;;;;;;;2080219;28;20271;-53
2021/03/03 00:12:03;;;;;;;20.23;16.30;;;;;;;;;;2080941;28;20199;-52
2021/03/03 00:13:04;;;;;;;19.97;15.60;;;;;;;;;;2080897;28;20264;-57
2021/03/03 00:14:04;;;;;;;21.73;16.83;;;;;;;;;;2081224;28;20172;-55
2021/03/03 00:15:05;;;;;;;21.60;16.33;;;;;;;;;;2081883;28;20599;-61
2021/03/03 00:16:05;;;;;;;23.17;16.80;;;;;;;;;;2080534;28;20169;-55
2021/03/03 00:17:05;;;;;;;21.03;16.40;;;;;;;;;;2080113;28;20668;-55
2021/03/03 00:18:05;;;;;;;22.00;17.27;;;;;;;;;;2082170;28;20241;-54
2021/03/03 00:19:06;;;;;;;25.47;16.03;;;;;;;;;;2080807;28;20573;-54
2021/03/03 00:20:07;;;;;;;25.30;17.10;;;;;;;;;;2079453;28;20198;-60
2021/03/03 00:21:07;;;;;;;21.00;16.80;;;;;;;;;;2081819;28;20187;-51
2021/03/03 00:22:07;;;;;;;24.23;17.00;;;;;;;;;;2078558;28;20268;-54
2021/03/03 00:23:08;;;;;;;19.87;15.87;;;;;;;;;;2079301;28;20200;-57
2021/03/03 00:24:08;;;;;;;20.10;16.47;;;;;;;;;;2079377;28;20173;-55
2021/03/03 00:25:08;;;;;;;19.90;16.97;;;;;;;;;;2078374;28;20177;-57
2021/03/03 00:26:09;;;;;;;23.43;17.13;;;;;;;;;;2078017;28;20207;-56
2021/03/03 00:27:09;;;;;;;25.97;19.90;;;;;;;;;;2076678;28;20195;-61
2021/03/03 00:28:09;;;;;;;23.67;19.77;;;;;;;;;;2078592;28;20176;-54
2021/03/03 00:29:09;;;;;;;25.73;19.53;;;;;;;;;;2079019;28;20679;-55
2021/03/03 00:30:10;;;;;;;23.33;19.27;;;;;;;;;;2077206;28;20632;-55
2021/03/03 00:31:10;;;;;;;22.37;17.43;;;;;;;;;;2078954;28;20780;-53
2021/03/03 00:32:10;;;;;;;22.13;17.70;;;;;;;;;;2077590;28;20176;-56
2021/03/03 00:33:10;;;;;;;21.67;17.30;;;;;;;;;;2076685;28;20184;-56
2021/03/03 00:34:11;;;;;;;22.53;17.87;;;;;;;;;;2078515;28;20169;-53
2021/03/03 00:35:11;;;;;;;23.30;17.00;;;;;;;;;;2078022;28;20241;-51
2021/03/03 00:36:11;;;;;;;20.90;16.73;;;;;;;;;;2077406;28;20181;-52
2021/03/03 00:37:12;;;;;;;19.10;16.90;;;;;;;;;;2077899;28;20180;-53
2021/03/03 00:38:12;;;;;;;21.37;16.23;;;;;;;;;;2077185;28;20180;-55
2021/03/03 00:39:12;;;;;;;21.90;16.20;;;;;;;;;;2078444;28;20289;-55
2021/03/03 00:40:12;;;;;;;20.93;16.43;;;;;;;;;;2079712;28;20255;-56
2021/03/03 00:41:12;;;;;;;24.00;17.13;;;;;;;;;;2077556;28;20184;-56
2021/03/03 00:42:13;;;;;;;21.07;15.87;;;;;;;;;;2075936;28;20598;-53
2021/03/03 00:43:13;;;;;;;21.20;16.70;;;;;;;;;;2078923;28;20207;-52
2021/03/03 00:44:13;;;;;;;20.97;15.10;;;;;;;;;;2076536;28;20281;-56
2021/03/03 00:45:14;;;;;;;20.50;15.73;;;;;;;;;;2077037;28;20205;-57
2021/03/03 00:46:14;;;;;;;22.30;15.83;;;;;;;;;;2077288;28;20181;-55
2021/03/03 00:47:15;;;;;;;19.37;16.17;;;;;;;;;;2077211;28;20175;-55
2021/03/03 00:48:17;;;;;;;22.47;16.60;;;;;;;;;;2076285;28;20175;-57
2021/03/03 00:49:17;;;;;;;18.93;16.23;;;;;;;;;;2070124;28;20200;-52
2021/03/03 00:50:18;;;;;;;23.57;17.57;;;;;;;;;;2071606;28;20632;-55
2021/03/03 00:51:24;;;;;;;19.67;16.13;;;;;;;;;;2076911;28;20176;-56
2021/03/03 00:52:26;;;;;;;19.80;16.90;;;;;;;;;;2080786;28;20176;-55
2021/03/03 00:53:26;;;;;;;20.67;16.37;;;;;;;;;;2071470;28;20201;-56
2021/03/03 00:54:27;;;;;;;20.00;15.67;;;;;;;;;;2072193;28;20239;-55
2021/03/03 00:55:27;;;;;;;19.17;16.23;;;;;;;;;;2080005;28;20164;-55
2021/03/03 00:56:29;;;;;;;20.33;16.37;;;;;;;;;;2071044;28;20208;-54
2021/03/03 00:57:29;;;;;;;21.53;16.33;;;;;;;;;;2081506;28;20188;-55
2021/03/03 00:58:30;;;;;;;18.57;16.20;;;;;;;;;;2079718;28;20172;-49
2021/03/03 00:59:33;;;;;;;21.30;15.67;;;;;;;;;;2076803;28;20176;-52
2021/03/03 01:00:34;;;;;;;20.83;16.67;;;;;;;;;;2078056;28;20196;-52
2021/03/03 01:01:35;;;;;;;21.13;16.90;;;;;;;;;;2076781;28;20832;-54
2021/03/03 01:02:38;;;;;;;19.50;15.93;;;;;;;;;;2077514;28;20715;-51
2021/03/03 01:03:39;;;;;;;20.17;16.37;;;;;;;;;;2067851;28;20197;-56
2021/03/03 01:04:51;;;;;;;20.23;15.87;;;;;;;;;;2073624;28;20196;-54
2021/03/03 01:05:52;;;;;;;24.00;17.37;;;;;;;;;;2080208;28;20267;-51
2021/03/03 01:06:52;;;;;;;23.23;16.03;;;;;;;;;;2079295;28;20252;-59
2021/03/03 01:07:52;;;;;;;24.07;17.60;;;;;;;;;;2077872;28;20192;-53
2021/03/03 01:08:52;;;;;;;21.47;17.13;;;;;;;;;;2077019;28;20691;-53
2021/03/03 01:09:53;;;;;;;21.27;17.03;;;;;;;;;;2076593;28;20176;-53
2021/03/03 01:10:53;;;;;;;21.40;17.33;;;;;;;;;;2076436;28;20184;-53
2021/03/03 01:11:57;;;;;;;24.20;19.23;;;;;;;;;;2072781;28;20181;-50
2021/03/03 01:12:58;;;;;;;22.97;16.73;;;;;;;;;;2072894;28;20173;-55
2021/03/03 01:13:58;;;;;;;22.37;17.77;;;;;;;;;;2079383;28;20330;-55
2021/03/03 01:15:00;;;;;;;22.07;17.50;;;;;;;;;;2071154;28;20188;-54
2021/03/03 01:16:00;;;;;;;21.13;17.40;;;;;;;;;;2081052;28;20183;-51
2021/03/03 01:17:03;;;;;;;20.77;16.80;;;;;;;;;;2079018;28;20206;-55
2021/03/03 01:18:13;;;;;;;24.83;18.10;;;;;;;;;;2081228;28;20297;-58
2021/03/03 01:19:13;;;;;;;19.60;16.03;;;;;;;;;;2077120;28;20200;-54
2021/03/03 01:20:13;;;;;;;21.33;17.03;;;;;;;;;;2078406;28;20177;-54
2021/03/03 01:21:13;;;;;;;21.67;16.87;;;;;;;;;;2075853;28;20640;-52
2021/03/03 01:22:13;;;;;;;20.97;16.43;;;;;;;;;;2080145;28;20522;-54
2021/03/03 01:23:14;;;;;;;22.33;17.47;;;;;;;;;;2078267;28;20196;-54
2021/03/03 01:24:14;;;;;;;20.63;17.63;;;;;;;;;;2077618;28;20227;-56
2021/03/03 01:25:14;;;;;;;19.50;16.90;;;;;;;;;;2078075;28;20692;-57
2021/03/03 01:26:14;;;;;;;22.80;17.63;;;;;;;;;;2078244;28;20544;-53
2021/03/03 01:27:15;;;;;;;23.13;17.17;;;;;;;;;;2078256;28;20244;-56
2021/03/03 01:28:15;;;;;;;22.10;17.77;;;;;;;;;;2078247;28;20225;-56
2021/03/03 01:29:15;;;;;;;24.20;16.73;;;;;;;;;;2080677;28;20215;-52
2021/03/03 01:30:16;;;;;;;21.30;17.43;;;;;;;;;;2078085;28;20164;-54
2021/03/03 01:31:16;;;;;;;22.50;18.37;;;;;;;;;;2080290;28;20181;-55
2021/03/03 01:32:17;;;;;;;21.83;17.00;;;;;;;;;;2076185;28;20258;-53
2021/03/03 01:33:27;;;;;;;21.83;18.00;;;;;;;;;;2080722;28;20204;-52
2021/03/03 01:34:27;;;;;;;21.30;17.07;;;;;;;;;;2081599;28;20184;-50
2021/03/03 01:35:27;;;;;;;22.40;18.07;;;;;;;;;;2082089;28;20172;-56
2021/03/03 01:36:28;;;;;;;25.30;18.33;;;;;;;;;;2081110;28;20258;-54
2021/03/03 01:37:28;;;;;;;22.23;18.20;;;;;;;;;;2083736;28;20198;-54
2021/03/03 01:38:28;;;;;;;20.43;18.00;;;;;;;;;;2082874;28;20182;-53
2021/03/03 01:39:28;;;;;;;23.63;17.97;;;;;;;;;;2083320;28;20258;-48
2021/03/03 01:40:29;;;;;;;24.77;17.83;;;;;;;;;;2081586;28;20195;-50
2021/03/03 01:41:29;;;;;;;23.10;18.07;;;;;;;;;;2082613;28;20167;-56
2021/03/03 01:42:29;;;;;;;20.07;16.50;;;;;;;;;;2083695;28;20179;-57
2021/03/03 01:43:30;;;;;;;22.87;18.63;;;;;;;;;;2082821;28;20178;-52
2021/03/03 01:44:30;;;;;;;25.57;17.97;;;;;;;;;;2081878;28;20172;-52
2021/03/03 01:45:31;;;;;;;21.30;17.07;;;;;;;;;;2080955;28;20167;-54
2021/03/03 01:46:31;;;;;;;22.10;17.83;;;;;;;;;;2079707;28;20184;-51
2021/03/03 01:47:31;;;;;;;23.63;17.00;;;;;;;;;;2080573;28;20207;-54
2021/03/03 01:48:31;;;;;;;23.13;16.60;;;;;;;;;;2082151;28;20646;-55
2021/03/03 01:49:32;;;;;;;21.03;16.50;;;;;;;;;;2080841;28;20181;-54
2021/03/03 01:50:32;;;;;;;22.00;18.10;;;;;;;;;;2083236;28;20632;-52
2021/03/03 01:51:33;;;;;;;20.97;16.50;;;;;;;;;;2078405;28;21084;-50
2021/03/03 01:52:34;;;;;;;24.87;18.00;;;;;;;;;;2070344;28;20185;-50
2021/03/03 01:53:34;;;;;;;25.40;18.80;;;;;;;;;;2077280;28;20267;-50
2021/03/03 01:54:35;;;;;;;18.33;15.80;;;;;;;;;;2083172;28;20180;-49
2021/03/03 01:55:35;;;;;;;23.77;16.97;;;;;;;;;;2080361;28;20192;-54
2021/03/03 01:56:35;;;;;;;22.10;17.97;;;;;;;;;;2079150;28;20213;-53
2021/03/03 01:57:36;;;;;;;21.33;17.03;;;;;;;;;;2083542;28;20641;-56
2021/03/03 01:58:36;;;;;;;25.17;17.87;;;;;;;;;;2080335;28;20176;-56
2021/03/03 01:59:36;;;;;;;20.43;16.40;;;;;;;;;;2083882;28;20286;-54
2021/03/03 02:00:37;;;;;;;20.33;16.93;;;;;;;;;;2079827;28;20192;-53
2021/03/03 02:01:37;;;;;;;22.53;17.07;;;;;;;;;;2083519;28;20171;-51
2021/03/03 02:02:38;;;;;;;21.77;16.87;;;;;;;;;;2080371;28;20724;-51
2021/03/03 02:03:39;;;;;;;23.80;16.87;;;;;;;;;;2077418;28;20722;-51
2021/03/03 02:04:39;;;;;;;20.47;16.63;;;;;;;;;;2080824;28;20187;-51
2021/03/03 02:05:40;;;;;;;21.07;16.63;;;;;;;;;;2081529;28;20230;-53
2021/03/03 02:06:50;;;;;;;20.47;17.27;;;;;;;;;;2075040;28;20210;-51
2021/03/03 02:07:51;;;;;;;24.17;17.13;;;;;;;;;;2082182;28;20195;-55
2021/03/03 02:08:58;;;;;;;25.13;17.70;;;;;;;;;;2082540;28;20211;-54
2021/03/03 02:10:05;;;;;;;18.50;16.23;;;;;;;;;;2076290;28;20194;-57
2021/03/03 02:11:24;;;;;;;22.50;17.23;;;;;;;;;;2082200;28;20183;-56
2021/03/03 02:12:31;;;;;;;24.50;17.63;;;;;;;;;;2080623;28;20569;-50
2021/03/03 02:13:33;;;;;;;23.17;16.57;;;;;;;;;;2083061;28;20176;-52
2021/03/03 02:14:34;;;;;;;22.53;17.20;;;;;;;;;;2083160;28;20175;-56
2021/03/03 02:15:35;;;;;;;23.10;17.90;;;;;;;;;;2082142;28;20172;-55
2021/03/03 02:16:36;;;;;;;21.47;18.13;;;;;;;;;;2083270;28;20180;-54
2021/03/03 02:17:37;;;;;;;21.53;16.90;;;;;;;;;;2082245;28;20202;-51
2021/03/03 02:18:38;;;;;;;24.77;17.43;;;;;;;;;;2085257;28;20262;-53
2021/03/03 02:19:40;;;;;;;21.13;17.60;;;;;;;;;;2078786;28;20649;-53
2021/03/03 02:20:47;;;;;;;27.37;20.77;;;;;;;;;;2080066;28;20314;-51
2021/03/03 02:21:58;;;;;;;31.10;20.90;;;;;;;;;;2077122;28;20173;-50
2021/03/03 02:23:11;;;;;;;21.83;17.37;;;;;;;;;;2077758;28;20181;-51
2021/03/03 02:24:19;;;;;;;22.53;18.87;;;;;;;;;;2076916;28;20249;-57
2021/03/03 02:25:21;;;;;;;20.40;16.63;;;;;;;;;;2075634;28;20410;-59
2021/03/03 02:26:22;;;;;;;22.33;17.53;;;;;;;;;;2080434;28;20493;-50
2021/03/03 02:27:23;;;;;;;21.77;17.33;;;;;;;;;;2076005;28;20203;-54
2021/03/03 02:28:24;;;;;;;25.67;18.73;;;;;;;;;;2079620;28;20417;-54
2021/03/03 02:29:28;;;;;;;20.57;17.37;;;;;;;;;;2080707;28;20176;-56
2021/03/03 02:30:29;;;;;;;21.80;17.20;;;;;;;;;;2075826;28;20302;-57
2021/03/03 02:31:31;;;;;;;30.53;19.10;;;;;;;;;;2078415;28;20196;-55
2021/03/03 02:32:31;;;;;;;21.60;17.90;;;;;;;;;;2076708;28;20698;-53
2021/03/03 02:33:32;;;;;;;22.33;17.47;;;;;;;;;;2080213;28;20185;-57
2021/03/03 02:34:32;;;;;;;24.73;17.93;;;;;;;;;;2074039;28;20770;-51
2021/03/03 02:35:33;;;;;;;24.30;18.57;;;;;;;;;;2080105;28;20175;-53
2021/03/03 02:36:33;;;;;;;23.97;18.90;;;;;;;;;;2077851;28;20176;-51
2021/03/03 02:37:34;;;;;;;21.00;17.73;;;;;;;;;;2078194;28;20259;-51
2021/03/03 02:38:34;;;;;;;20.70;17.17;;;;;;;;;;2077661;28;20168;-54
2021/03/03 02:39:35;;;;;;;21.43;17.57;;;;;;;;;;2075672;28;20172;-54
2021/03/03 02:40:39;;;;;;;22.70;17.73;;;;;;;;;;2077569;28;20247;-52
2021/03/03 02:41:41;;;;;;;26.30;19.20;;;;;;;;;;2076729;28;20641;-54
2021/03/03 02:42:42;;;;;;;22.90;19.27;;;;;;;;;;2078133;28;20191;-55
2021/03/03 02:43:42;;;;;;;23.87;19.07;;;;;;;;;;2078408;28;20213;-52
2021/03/03 02:44:43;;;;;;;20.37;17.17;;;;;;;;;;2077409;28;20185;-51
2021/03/03 02:45:44;;;;;;;22.90;17.80;;;;;;;;;;2077711;28;20172;-56
2021/03/03 02:46:46;;;;;;;23.37;17.63;;;;;;;;;;2079400;28;20207;-53
2021/03/03 02:47:46;;;;;;;22.87;17.30;;;;;;;;;;2079405;28;20202;-51
2021/03/03 02:48:47;;;;;;;20.40;17.83;;;;;;;;;;2079623;28;20960;-51
2021/03/03 02:49:48;;;;;;;26.77;18.30;;;;;;;;;;2077390;28;20562;-54
2021/03/03 02:50:48;;;;;;;23.87;18.87;;;;;;;;;;2079299;28;20184;-51
2021/03/03 02:51:48;;;;;;;27.83;19.07;;;;;;;;;;2076904;28;20178;-52
2021/03/03 02:52:53;;;;;;;33.77;18.33;;;;;;;;;;2079492;28;20200;-51
2021/03/03 02:53:53;;;;;;;23.10;17.40;;;;;;;;;;2079888;28;20192;-51
2021/03/03 02:54:54;;;;;;;23.70;17.33;;;;;;;;;;2077348;28;20165;-53
2021/03/03 02:55:54;;;;;;;22.70;18.03;;;;;;;;;;2079887;28;20553;-51
2021/03/03 02:56:55;;;;;;;24.63;17.87;;;;;;;;;;2079032;28;20215;-51
2021/03/03 02:57:56;;;;;;;26.57;18.63;;;;;;;;;;2079222;28;20184;-57
2021/03/03 02:58:57;;;;;;;26.57;19.50;;;;;;;;;;2078744;28;20211;-57
2021/03/03 02:59:57;;;;;;;22.47;18.57;;;;;;;;;;2079867;28;20176;-56
2021/03/03 03:01:00;;;;;;;25.43;19.37;;;;;;;;;;2082111;28;20180;-54
2021/03/03 03:02:02;;;;;;;26.80;19.27;;;;;;;;;;2080250;28;20251;-59
2021/03/03 03:03:08;;;;;;;29.13;20.13;;;;;;;;;;2083456;28;20193;-60
2021/03/03 03:04:11;;;;;;;23.37;19.23;;;;;;;;;;2081092;28;20176;-58
2021/03/03 03:05:12;;;;;;;23.97;18.97;;;;;;;;;;2081200;28;20223;-57
2021/03/03 03:06:20;;;;;;;23.50;18.40;;;;;;;;;;2081977;28;20196;-56
2021/03/03 03:07:21;;;;;;;25.23;18.13;;;;;;;;;;2083511;28;20194;-58
2021/03/03 03:08:21;;;;;;;22.60;18.30;;;;;;;;;;2082678;28;20176;-59
2021/03/03 03:09:23;;;;;;;23.20;18.23;;;;;;;;;;2084022;28;20655;-58
2021/03/03 03:10:24;;;;;;;26.43;18.87;;;;;;;;;;2082640;28;20179;-56
2021/03/03 03:11:26;;;;;;;24.03;18.77;;;;;;;;;;2082237;28;20186;-60
2021/03/03 03:12:29;;;;;;;23.83;20.20;;;;;;;;;;2079622;28;20716;-51
2021/03/03 03:13:30;;;;;;;23.87;18.90;;;;;;;;;;2078372;28;20782;-53
2021/03/03 03:14:32;;;;;;;26.47;19.47;;;;;;;;;;2080450;28;20759;-52
2021/03/03 03:15:33;;;;;;;24.70;18.80;;;;;;;;;;2079598;28;20177;-54
2021/03/03 03:16:35;;;;;;;24.33;19.03;;;;;;;;;;2080189;28;20177;-52
2021/03/03 03:17:36;;;;;;;27.90;19.17;;;;;;;;;;2080343;28;20252;-54
2021/03/03 03:18:41;;;;;;;26.83;19.40;;;;;;;;;;2079643;28;20291;-56
2021/03/03 03:19:44;;;;;;;23.77;18.80;;;;;;;;;;2073427;28;20220;-51
2021/03/03 03:20:45;;;;;;;25.63;19.30;;;;;;;;;;2081248;28;20421;-53
2021/03/03 03:21:46;;;;;;;24.07;18.33;;;;;;;;;;2077951;28;20185;-56
2021/03/03 03:22:47;;;;;;;24.87;18.40;;;;;;;;;;2081186;28;20199;-57
2021/03/03 03:23:48;;;;;;;27.30;19.37;;;;;;;;;;2082678;28;20191;-56
2021/03/03 03:24:48;;;;;;;23.13;18.03;;;;;;;;;;2083125;28;20251;-54
2021/03/03 03:25:50;;;;;;;22.43;18.37;;;;;;;;;;2079861;28;20418;-51
2021/03/03 03:26:51;;;;;;;23.47;18.83;;;;;;;;;;2079254;28;20191;-51
2021/03/03 03:27:51;;;;;;;33.33;20.00;;;;;;;;;;2078550;28;20398;-53
2021/03/03 03:28:52;;;;;;;27.17;18.40;;;;;;;;;;2079683;28;20203;-55
2021/03/03 03:29:52;;;;;;;26.87;19.13;;;;;;;;;;2078511;28;20177;-55
2021/03/03 03:30:53;;;;;;;23.77;18.67;;;;;;;;;;2080945;28;20663;-53
2021/03/03 03:31:54;;;;;;;22.77;18.63;;;;;;;;;;2079928;28;20239;-54
2021/03/03 03:32:58;;;;;;;25.30;18.53;;;;;;;;;;2083492;28;20172;-51
2021/03/03 03:33:59;;;;;;;26.87;19.53;;;;;;;;;;2079893;28;20187;-53
2021/03/03 03:34:59;;;;;;;24.70;19.27;;;;;;;;;;2078012;28;20651;-50
2021/03/03 03:36:04;;;;;;;27.20;19.60;;;;;;;;;;2078719;28;20192;-50
2021/03/03 03:37:05;;;;;;;27.03;18.80;;;;;;;;;;2077402;28;20172;-50
2021/03/03 03:38:05;;;;;;;24.37;18.67;;;;;;;;;;2077862;28;20842;-50
2021/03/03 03:39:10;;;;;;;25.97;19.50;;;;;;;;;;2079576;28;20245;-50
2021/03/03 03:40:10;;;;;;;24.10;19.70;;;;;;;;;;2077536;28;20191;-51
2021/03/03 03:41:11;;;;;;;28.50;19.33;;;;;;;;;;2079602;28;20212;-54
2021/03/03 03:42:13;;;;;;;24.60;18.23;;;;;;;;;;2078556;28;20230;-54
2021/03/03 03:43:14;;;;;;;23.10;18.63;;;;;;;;;;2077547;28;20181;-50
2021/03/03 03:44:15;;;;;;;22.87;18.43;;;;;;;;;;2079739;28;20514;-50
2021/03/03 03:45:15;;;;;;;27.07;18.57;;;;;;;;;;2077488;28;20707;-53
2021/03/03 03:46:16;;;;;;;24.47;19.20;;;;;;;;;;2075510;28;20180;-54
2021/03/03 03:47:17;;;;;;;27.23;19.60;;;;;;;;;;2079384;28;20270;-51
2021/03/03 03:48:18;;;;;;;29.23;19.43;;;;;;;;;;2077282;28;20549;-52
2021/03/03 03:49:19;;;;;;;23.33;19.83;;;;;;;;;;2080074;28;20433;-53
2021/03/03 03:50:20;;;;;;;25.13;18.80;;;;;;;;;;2076937;28;20514;-53
2021/03/03 03:51:21;;;;;;;23.67;18.77;;;;;;;;;;2078935;28;20177;-50
2021/03/03 03:52:21;;;;;;;26.07;19.23;;;;;;;;;;2077929;28;20183;-56
2021/03/03 03:53:21;;;;;;;25.07;19.40;;;;;;;;;;2076787;28;20195;-55
2021/03/03 03:54:22;;;;;;;26.87;20.00;;;;;;;;;;2078463;28;20189;-52
2021/03/03 03:55:29;;;;;;;26.63;21.50;;;;;;;;;;2075346;28;20621;-52
2021/03/03 03:56:29;;;;;;;29.67;20.60;;;;;;;;;;2079400;28;20526;-51
2021/03/03 03:57:39;;;;;;;27.90;19.87;;;;;;;;;;2076744;28;20461;-53
2021/03/03 03:58:39;;;;;;;24.17;19.50;;;;;;;;;;2078324;28;20256;-52
2021/03/03 03:59:39;;;;;;;26.50;19.43;;;;;;;;;;2079227;28;20406;-51
2021/03/03 04:00:39;;;;;;;30.63;19.23;;;;;;;;;;2078696;28;20223;-54
2021/03/03 04:01:40;;;;;;;28.03;21.23;;;;;;;;;;2078759;28;20226;-53
2021/03/03 04:02:40;;;;;;;27.20;21.10;;;;;;;;;;2076929;28;20613;-55
2021/03/03 04:03:40;;;;;;;27.67;20.97;;;;;;;;;;2077622;28;20331;-55
2021/03/03 04:04:40;;;;;;;26.60;19.70;;;;;;;;;;2076932;28;20181;-54
2021/03/03 04:05:41;;;;;;;28.80;20.37;;;;;;;;;;2077850;28;20177;-51
2021/03/03 04:06:41;;;;;;;25.83;19.73;;;;;;;;;;2079138;28;20213;-50
2021/03/03 04:07:41;;;;;;;25.77;20.00;;;;;;;;;;2077303;28;20211;-54
2021/03/03 04:08:42;;;;;;;27.53;20.87;;;;;;;;;;2078218;28;20197;-54
2021/03/03 04:09:42;;;;;;;27.93;20.13;;;;;;;;;;2078563;28;20187;-53
2021/03/03 04:10:42;;;;;;;30.00;21.50;;;;;;;;;;2077737;28;20173;-53
2021/03/03 04:11:42;;;;;;;33.53;21.00;;;;;;;;;;2079986;28;20184;-54
2021/03/03 04:12:43;;;;;;;26.53;20.33;;;;;;;;;;2080651;28;20263;-53
2021/03/03 04:13:43;;;;;;;26.70;20.77;;;;;;;;;;2081253;28;20602;-53
2021/03/03 04:14:44;;;;;;;28.23;21.77;;;;;;;;;;2080473;28;20200;-53
2021/03/03 04:15:44;;;;;;;28.33;20.37;;;;;;;;;;2079404;28;20199;-56
2021/03/03 04:16:44;;;;;;;30.37;20.30;;;;;;;;;;2080590;28;20184;-55
2021/03/03 04:17:44;;;;;;;31.47;22.43;;;;;;;;;;2080143;28;20181;-51
2021/03/03 04:18:45;;;;;;;27.50;20.70;;;;;;;;;;2081537;28;20199;-50
2021/03/03 04:19:45;;;;;;;29.47;20.77;;;;;;;;;;2080882;28;20568;-56
2021/03/03 04:20:45;;;;;;;27.00;19.93;;;;;;;;;;2080245;28;20214;-54
2021/03/03 04:21:46;;;;;;;28.73;20.50;;;;;;;;;;2080943;28;20218;-53
2021/03/03 04:22:47;;;;;;;29.83;20.67;;;;;;;;;;2080821;28;20191;-56
2021/03/03 04:23:47;;;;;;;25.87;19.37;;;;;;;;;;2081555;28;20195;-52
2021/03/03 04:24:47;;;;;;;24.47;19.07;;;;;;;;;;2080400;28;20237;-50
2021/03/03 04:25:47;;;;;;;25.20;18.53;;;;;;;;;;2078446;28;20185;-54
2021/03/03 04:26:48;;;;;;;27.70;20.90;;;;;;;;;;2081258;28;20712;-55
2021/03/03 04:27:48;;;;;;;27.17;19.73;;;;;;;;;;2083058;28;20191;-53
2021/03/03 04:28:48;;;;;;;23.53;18.43;;;;;;;;;;2080323;28;20271;-57
2021/03/03 04:29:48;;;;;;;25.07;19.13;;;;;;;;;;2080957;28;20172;-52
2021/03/03 04:30:48;;;;;;;26.50;18.77;;;;;;;;;;2080980;28;20210;-52
2021/03/03 04:31:49;;;;;;;25.23;18.47;;;;;;;;;;2081478;28;20212;-51
2021/03/03 04:32:49;;;;;;;22.87;17.60;;;;;;;;;;2080943;28;20191;-51
2021/03/03 04:33:49;;;;;;;29.07;20.50;;;;;;;;;;2082070;28;20180;-53
2021/03/03 04:34:49;;;;;;;27.60;19.00;;;;;;;;;;2080895;28;20173;-53
2021/03/03 04:35:49;;;;;;;27.60;19.27;;;;;;;;;;2081996;28;20283;-51
2021/03/03 04:36:50;;;;;;;25.03;19.40;;;;;;;;;;2080986;28;20191;-50
2021/03/03 04:37:50;;;;;;;28.73;19.83;;;;;;;;;;2081554;28;20188;-53
2021/03/03 04:38:50;;;;;;;28.97;21.07;;;;;;;;;;2081000;28;20196;-54
2021/03/03 04:39:51;;;;;;;29.63;21.80;;;;;;;;;;2077165;28;20177;-50
2021/03/03 04:40:51;;;;;;;25.77;19.00;;;;;;;;;;2081762;28;20188;-52
2021/03/03 04:41:51;;;;;;;23.93;18.33;;;;;;;;;;2081461;28;20661;-51
2021/03/03 04:42:51;;;;;;;25.47;19.17;;;;;;;;;;2080859;28;20180;-52
2021/03/03 04:43:52;;;;;;;27.53;19.10;;;;;;;;;;2081314;28;20234;-52
2021/03/03 04:44:52;;;;;;;29.20;20.03;;;;;;;;;;2068251;28;20181;-52
2021/03/03 04:45:52;;;;;;;27.40;19.00;;;;;;;;;;2069438;28;20272;-51
2021/03/03 04:46:52;;;;;;;29.00;19.17;;;;;;;;;;2080180;28;20208;-52
2021/03/03 04:47:53;;;;;;;27.57;18.97;;;;;;;;;;2080544;28;20168;-58
2021/03/03 04:48:53;;;;;;;23.13;18.57;;;;;;;;;;2081357;28;20200;-54
2021/03/03 04:49:53;;;;;;;29.03;20.07;;;;;;;;;;2081195;28;20183;-51
2021/03/03 04:50:53;;;;;;;28.23;19.43;;;;;;;;;;2081361;28;20194;-54
2021/03/03 04:51:53;;;;;;;28.73;19.93;;;;;;;;;;2080006;28;20250;-51
2021/03/03 04:52:54;;;;;;;24.33;19.13;;;;;;;;;;2082456;28;20203;-51
2021/03/03 04:53:54;;;;;;;26.93;20.57;;;;;;;;;;2082307;28;20178;-50
2021/03/03 04:54:54;;;;;;;29.67;19.50;;;;;;;;;;2082329;28;20259;-53
2021/03/03 04:55:54;;;;;;;27.43;19.00;;;;;;;;;;2079094;28;20207;-54
2021/03/03 04:56:54;;;;;;;24.10;18.60;;;;;;;;;;2082416;28;20180;-51
2021/03/03 04:57:55;;;;;;;27.97;19.83;;;;;;;;;;2080387;28;20270;-52
2021/03/03 04:58:55;;;;;;;27.57;19.40;;;;;;;;;;2106136;22;21272;-59
2021/03/03 04:59:55;;;;;;;30.27;21.33;;;;;;;;;;2081841;28;20267;-58
2021/03/03 05:00:55;;;;;;;31.07;20.57;;;;;;;;;;2083008;28;20203;-57
2021/03/03 05:01:56;;;;;;;28.83;20.93;;;;;;;;;;2083351;28;20181;-57
2021/03/03 05:02:56;;;;;;;25.83;19.47;;;;;;;;;;2087373;28;20173;-55
2021/03/03 05:03:56;;;;;;;26.97;20.03;;;;;;;;;;2086406;28;20197;-57
2021/03/03 05:04:57;;;;;;;33.03;21.67;;;;;;;;;;2087606;28;20203;-57
2021/03/03 05:05:57;;;;;;;29.00;19.50;;;;;;;;;;2088680;28;20225;-55
2021/03/03 05:06:57;;;;;;;27.97;20.27;;;;;;;;;;2079229;28;20201;-53
2021/03/03 05:07:57;;;;;;;27.30;19.87;;;;;;;;;;2071614;28;20672;-56
2021/03/03 05:08:58;;;;;;;26.97;19.77;;;;;;;;;;2078915;28;20664;-54
2021/03/03 05:09:58;;;;;;;22.80;18.60;;;;;;;;;;2081462;28;20220;-55
2021/03/03 05:10:58;;;;;;;26.83;18.73;;;;;;;;;;2073926;28;20176;-56
2021/03/03 05:11:58;;;;;;;27.10;19.67;;;;;;;;;;2068104;28;20264;-56
2021/03/03 05:12:59;;;;;;;26.37;19.97;;;;;;;;;;2086366;28;20560;-57
2021/03/03 05:13:59;;;;;;;26.17;20.10;;;;;;;;;;2079766;28;20172;-57
2021/03/03 05:14:59;;;;;;;26.67;20.33;;;;;;;;;;2083767;28;20172;-56
2021/03/03 05:15:59;;;;;;;28.97;21.13;;;;;;;;;;2076840;28;20208;-55
2021/03/03 05:17:00;;;;;;;27.47;19.77;;;;;;;;;;2082197;28;20191;-58
2021/03/03 05:18:00;;;;;;;29.37;20.60;;;;;;;;;;2080739;28;20187;-58
2021/03/03 05:19:00;;;;;;;27.70;19.40;;;;;;;;;;2081133;28;20196;-57
2021/03/03 05:20:01;;;;;;;26.03;19.33;;;;;;;;;;2079326;28;20184;-58
2021/03/03 05:21:01;;;;;;;24.17;19.53;;;;;;;;;;2078046;28;20643;-57
2021/03/03 05:22:01;;;;;;;29.27;20.83;;;;;;;;;;2064109;28;20178;-58
2021/03/03 05:23:02;;;;;;;25.63;18.77;;;;;;;;;;2063045;28;20186;-54
2021/03/03 05:24:02;;;;;;;25.00;20.50;;;;;;;;;;2072426;28;20220;-55
2021/03/03 05:25:03;;;;;;;29.43;21.00;;;;;;;;;;2063764;28;20179;-57
2021/03/03 05:26:04;;;;;;;30.17;20.77;;;;;;;;;;2071654;28;20900;-55
2021/03/03 05:27:04;;;;;;;27.70;20.03;;;;;;;;;;2079711;28;20204;-54
2021/03/03 05:28:05;;;;;;;30.43;20.73;;;;;;;;;;2073352;28;20181;-56
2021/03/03 05:29:05;;;;;;;27.53;20.53;;;;;;;;;;2070608;28;20698;-55
2021/03/03 05:30:06;;;;;;;29.20;20.10;;;;;;;;;;2070692;28;20169;-59
2021/03/03 05:31:06;;;;;;;31.20;20.07;;;;;;;;;;2069034;28;20178;-54
2021/03/03 05:32:07;;;;;;;28.33;21.27;;;;;;;;;;2070172;28;20176;-58
2021/03/03 05:33:07;;;;;;;26.37;19.93;;;;;;;;;;2076202;28;20173;-54
2021/03/03 05:34:07;;;;;;;27.43;19.87;;;;;;;;;;2081024;28;20256;-57
2021/03/03 05:35:08;;;;;;;27.03;20.57;;;;;;;;;;2079296;28;20188;-57
2021/03/03 05:36:08;;;;;;;28.70;21.27;;;;;;;;;;2077718;28;20188;-57
2021/03/03 05:37:09;;;;;;;28.43;21.17;;;;;;;;;;2066466;28;20203;-58
2021/03/03 05:38:09;;;;;;;27.47;20.83;;;;;;;;;;2070916;28;20185;-57
2021/03/03 05:39:09;;;;;;;27.57;19.70;;;;;;;;;;2075340;28;20219;-56
2021/03/03 05:40:10;;;;;;;28.60;20.27;;;;;;;;;;2078248;28;20176;-58
2021/03/03 05:41:10;;;;;;;31.30;20.70;;;;;;;;;;2076029;28;20184;-58
2021/03/03 05:42:10;;;;;;;27.70;21.00;;;;;;;;;;2067863;28;20260;-58
2021/03/03 05:43:11;;;;;;;31.77;21.13;;;;;;;;;;2069582;28;20207;-54
2021/03/03 05:44:12;;;;;;;27.47;21.17;;;;;;;;;;2070216;28;20181;-57
2021/03/03 05:45:13;;;;;;;30.87;21.63;;;;;;;;;;2070227;28;20231;-56
2021/03/03 05:46:14;;;;;;;30.77;21.37;;;;;;;;;;2079008;28;20180;-54
2021/03/03 05:47:15;;;;;;;31.33;21.17;;;;;;;;;;2079124;28;20287;-54
2021/03/03 05:48:21;;;;;;;26.60;21.17;;;;;;;;;;2079487;28;20656;-54
2021/03/03 05:49:23;;;;;;;27.63;20.23;;;;;;;;;;2081281;28;20570;-54
2021/03/03 05:50:24;;;;;;;26.60;20.33;;;;;;;;;;2079621;28;20413;-53
2021/03/03 05:51:25;;;;;;;29.33;21.13;;;;;;;;;;2079437;28;20707;-55
2021/03/03 05:52:26;;;;;;;29.63;20.70;;;;;;;;;;2078466;28;20185;-54
2021/03/03 05:53:27;;;;;;;27.40;21.40;;;;;;;;;;2081327;28;20179;-56
2021/03/03 05:54:28;;;;;;;30.17;20.13;;;;;;;;;;2078280;28;20263;-55
2021/03/03 05:55:29;;;;;;;28.20;21.00;;;;;;;;;;2076005;28;20518;-59